createdAt,value
2023-05-25T00:01:54.339Z,89.62
2023-05-25T00:04:26.991Z,87.94
2023-05-25T00:06:54.934Z,86.88
2023-05-25T00:09:24.745Z,87.34
2023-05-25T00:11:53.044Z,88.70
2023-05-25T00:14:21.356Z,87.99
2023-05-25T00:16:49.375Z,87.40
2023-05-25T00:19:18.651Z,90.03
2023-05-25T00:21:48.353Z,88.82
2023-05-25T00:24:16.051Z,87.11
2023-05-25T00:26:43.728Z,88.73
2023-05-25T00:29:12.787Z,88.70
2023-05-25T00:31:40.574Z,87.55
2023-05-25T00:34:09.073Z,89.25
2023-05-25T00:36:36.889Z,88.59
2023-05-25T00:39:04.641Z,87.46
2023-05-25T00:41:33.505Z,89.02
2023-05-25T00:44:01.229Z,90.14
2023-05-25T00:46:29.784Z,89.84
2023-05-25T00:48:57.654Z,90.09
2023-05-25T00:51:26.836Z,89.32
2023-05-25T00:53:54.583Z,89.86
2023-05-25T00:56:28.483Z,89.52
2023-05-25T00:59:00.899Z,88.93
2023-05-25T01:01:33.719Z,91.16
2023-05-25T01:04:03.385Z,90.59
2023-05-25T01:06:33.379Z,87.82
2023-05-25T01:09:04.328Z,89.88
2023-05-25T01:11:35.109Z,88.34
2023-05-25T01:14:03.462Z,90.31
2023-05-25T01:16:32.118Z,88.92
2023-05-25T01:19:02.927Z,88.36
2023-05-25T01:22:11.179Z,89.20
2023-05-25T01:24:56.203Z,88.68
2023-05-25T01:27:46.990Z,89.75
2023-05-25T01:30:16.966Z,89.12
2023-05-25T01:32:45.692Z,87.62
2023-05-25T01:35:14.895Z,87.50
2023-05-25T01:37:46.859Z,87.85
2023-05-25T01:40:15.741Z,89.26
2023-05-25T01:42:43.539Z,89.79
2023-05-25T01:45:13.418Z,89.02
2023-05-25T01:48:13.649Z,88.52
2023-05-25T01:50:53.682Z,89.66
2023-05-25T01:53:45.832Z,89.45
2023-05-25T01:56:14.430Z,88.60
2023-05-25T01:58:47.311Z,88.49
2023-05-25T02:01:17.253Z,91.54
2023-05-25T02:03:49.063Z,89.36
2023-05-25T02:06:17.008Z,89.21
2023-05-25T02:08:45.831Z,88.78
2023-05-25T02:11:14.794Z,88.98
2023-05-25T02:13:42.664Z,90.00
2023-05-25T02:16:10.493Z,90.16
2023-05-25T02:18:38.284Z,89.17
2023-05-25T02:21:06.050Z,88.92
2023-05-25T02:23:33.750Z,87.99
2023-05-25T02:26:01.429Z,89.01
2023-05-25T02:28:29.237Z,88.22
2023-05-25T02:30:56.941Z,88.95
2023-05-25T02:33:24.713Z,89.27
2023-05-25T02:35:52.393Z,89.24
2023-05-25T02:38:20.185Z,89.33
2023-05-25T02:40:47.906Z,89.85
2023-05-25T02:43:15.716Z,88.78
2023-05-25T02:45:44.968Z,89.21
2023-05-25T02:48:13.528Z,89.95
2023-05-25T02:50:42.186Z,90.48
2023-05-25T02:53:12.506Z,89.07
2023-05-25T02:55:40.557Z,89.28
2023-05-25T02:58:10.442Z,88.88
2023-05-25T03:00:50.771Z,88.38
2023-05-25T03:03:18.992Z,88.54
2023-05-25T03:05:49.136Z,89.08
2023-05-25T03:08:17.350Z,88.53
2023-05-25T03:10:45.518Z,88.89
2023-05-25T03:13:13.384Z,88.92
2023-05-25T03:15:41.109Z,88.25
2023-05-25T03:18:08.920Z,88.40
2023-05-25T03:20:38.504Z,87.88
2023-05-25T03:23:06.421Z,89.52
2023-05-25T03:25:34.392Z,89.00
2023-05-25T03:28:02.357Z,89.20
2023-05-25T03:30:30.687Z,89.40
2023-05-25T03:32:58.866Z,88.15
2023-05-25T03:35:30.829Z,89.00
2023-05-25T03:37:58.653Z,89.46
2023-05-25T03:40:26.423Z,88.81
2023-05-25T03:42:55.392Z,90.12
2023-05-25T03:45:23.167Z,89.95
2023-05-25T03:47:52.028Z,89.16
2023-05-25T03:50:21.445Z,89.22
2023-05-25T03:52:49.630Z,90.64
2023-05-25T03:55:17.803Z,89.36
2023-05-25T03:57:45.932Z,89.92
2023-05-25T04:00:14.606Z,89.93
2023-05-25T04:02:43.814Z,89.72
2023-05-25T04:05:11.641Z,89.89
2023-05-25T04:07:40.756Z,89.47
2023-05-25T04:10:09.207Z,90.73
2023-05-25T04:12:37.710Z,89.25
2023-05-25T04:15:09.201Z,89.06
2023-05-25T04:17:46.796Z,89.92
2023-05-25T04:20:14.585Z,90.75
2023-05-25T04:22:43.960Z,89.87
2023-05-25T04:25:11.675Z,90.28
2023-05-25T04:27:39.344Z,90.21
2023-05-25T04:30:11.180Z,90.83
2023-05-25T04:33:03.054Z,89.90
2023-05-25T04:35:36.802Z,89.46
2023-05-25T04:38:05.048Z,88.84
2023-05-25T04:40:35.489Z,89.81
2023-05-25T04:43:05.128Z,90.24
2023-05-25T04:45:33.428Z,89.19
2023-05-25T04:48:03.090Z,88.87
2023-05-25T04:50:30.924Z,90.45
2023-05-25T04:52:58.685Z,89.84
2023-05-25T04:55:26.535Z,88.98
2023-05-25T04:57:55.343Z,89.87
2023-05-25T05:00:24.046Z,89.54
2023-05-25T05:02:56.609Z,90.07
2023-05-25T05:05:24.813Z,89.85
2023-05-25T05:07:54.004Z,89.82
2023-05-25T05:10:22.083Z,89.33
2023-05-25T05:12:54.251Z,89.30
2023-05-25T05:15:22.200Z,89.09
2023-05-25T05:17:50.918Z,89.45
2023-05-25T05:20:19.037Z,89.91
2023-05-25T05:22:46.961Z,89.36
2023-05-25T05:25:14.798Z,89.02
2023-05-25T05:27:42.508Z,89.05
2023-05-25T05:30:33.086Z,88.14
2023-05-25T05:33:01.865Z,88.58
2023-05-25T05:35:32.942Z,88.18
2023-05-25T05:38:10.969Z,88.47
2023-05-25T05:40:39.116Z,87.77
2023-05-25T05:43:10.967Z,88.84
2023-05-25T05:45:38.965Z,88.37
2023-05-25T05:48:11.283Z,88.62
2023-05-25T05:50:42.044Z,88.52
2023-05-25T05:53:11.356Z,88.07
2023-05-25T05:55:39.369Z,88.55
2023-05-25T05:58:07.060Z,88.75
2023-05-25T06:00:34.815Z,87.35
2023-05-25T06:03:02.620Z,87.91
2023-05-25T06:05:31.255Z,87.36
2023-05-25T06:07:59.294Z,87.88
2023-05-25T06:10:27.005Z,87.48
2023-05-25T06:12:54.932Z,87.13
2023-05-25T06:15:22.744Z,87.61
2023-05-25T06:17:51.397Z,86.90
2023-05-25T06:20:19.278Z,86.98
2023-05-25T06:22:47.252Z,87.14
2023-05-25T06:25:16.527Z,86.96
2023-05-25T06:27:44.805Z,87.16
2023-05-25T06:30:13.014Z,87.47
2023-05-25T06:32:43.249Z,87.03
2023-05-25T06:35:17.374Z,87.06
2023-05-25T06:37:49.772Z,87.15
2023-05-25T06:40:19.170Z,87.38
2023-05-25T06:42:47.048Z,87.28
2023-05-25T06:45:42.156Z,86.74
2023-05-25T06:48:10.064Z,86.61
2023-05-25T06:50:37.873Z,86.20
2023-05-25T06:53:06.158Z,86.13
2023-05-25T06:55:33.825Z,87.11
2023-05-25T06:58:01.492Z,85.80
2023-05-25T07:00:29.280Z,86.50
2023-05-25T07:02:57.060Z,86.22
2023-05-25T07:05:24.992Z,85.58
2023-05-25T07:07:52.811Z,85.40
2023-05-25T07:10:20.612Z,85.03
2023-05-25T07:12:48.307Z,85.83
2023-05-25T07:15:16.397Z,84.97
2023-05-25T07:17:45.186Z,84.99
2023-05-25T07:20:13.337Z,85.09
2023-05-25T07:22:42.239Z,84.84
2023-05-25T07:25:10.159Z,84.77
2023-05-25T07:27:38.013Z,85.17
2023-05-25T07:30:06.617Z,84.75
2023-05-25T07:32:34.477Z,84.07
2023-05-25T07:35:03.442Z,83.88
2023-05-25T07:37:31.238Z,83.71
2023-05-25T07:39:58.915Z,83.79
2023-05-25T07:42:33.757Z,83.80
2023-05-25T07:45:02.234Z,83.59
2023-05-25T07:47:30.139Z,83.07
2023-05-25T07:49:58.148Z,83.07
2023-05-25T07:52:25.866Z,82.48
2023-05-25T07:54:53.850Z,82.27
2023-05-25T07:57:21.774Z,81.66
2023-05-25T07:59:49.558Z,81.85
2023-05-25T08:02:17.296Z,81.70
2023-05-25T08:04:45.274Z,82.39
2023-05-25T08:07:13.740Z,81.27
2023-05-25T08:09:41.494Z,81.24
2023-05-25T08:12:30.757Z,80.09
2023-05-25T08:14:56.749Z,79.26
2023-05-25T08:17:24.823Z,80.60
2023-05-25T08:19:52.652Z,80.33
2023-05-25T08:22:20.390Z,80.18
2023-05-25T08:24:48.104Z,79.45
2023-05-25T08:27:16.612Z,79.17
2023-05-25T08:29:44.298Z,79.53
2023-05-25T08:32:12.148Z,79.40
2023-05-25T08:34:41.963Z,79.09
2023-05-25T08:37:09.654Z,79.55
2023-05-25T08:39:37.372Z,79.37
2023-05-25T08:42:07.076Z,77.58
2023-05-25T08:44:36.861Z,78.01
2023-05-25T08:47:08.251Z,77.69
2023-05-25T08:49:38.861Z,76.42
2023-05-25T08:52:13.577Z,76.95
2023-05-25T08:54:45.212Z,76.07
2023-05-25T08:57:44.624Z,75.96
2023-05-25T09:00:15.681Z,75.22
2023-05-25T09:03:02.399Z,75.28
2023-05-25T09:05:30.767Z,75.26
2023-05-25T09:07:58.995Z,75.22
2023-05-25T09:10:28.031Z,75.08
2023-05-25T09:12:56.297Z,74.71
2023-05-25T09:15:24.105Z,74.53
2023-05-25T09:17:51.882Z,73.29
2023-05-25T09:20:20.290Z,71.91
2023-05-25T09:22:48.222Z,71.55
2023-05-25T09:25:22.732Z,70.82
2023-05-25T09:27:51.731Z,67.59
2023-05-25T09:30:19.554Z,67.46
2023-05-25T09:32:47.348Z,67.61
2023-05-25T09:35:15.861Z,65.20
2023-05-25T09:37:45.200Z,64.92
2023-05-25T09:40:14.797Z,63.90
2023-05-25T09:42:43.137Z,64.62
2023-05-25T09:45:11.149Z,64.80
2023-05-25T09:47:40.611Z,65.62
2023-05-25T09:50:09.217Z,65.63
2023-05-25T09:52:37.056Z,63.78
2023-05-25T09:55:10.399Z,63.01
2023-05-25T09:57:39.048Z,62.55
2023-05-25T10:00:08.612Z,62.32
2023-05-25T10:02:39.388Z,61.86
2023-05-25T10:05:09.358Z,61.24
2023-05-25T10:07:40.413Z,61.64
2023-05-25T10:10:10.277Z,62.00
2023-05-25T10:12:41.052Z,59.37
2023-05-25T10:15:12.639Z,59.25
2023-05-25T10:17:45.951Z,58.81
2023-05-25T10:20:15.701Z,55.83
2023-05-25T10:23:08.244Z,57.03
2023-05-25T10:25:46.832Z,54.93
2023-05-25T10:28:22.007Z,54.72
2023-05-25T10:30:51.022Z,55.70
2023-05-25T10:33:21.048Z,55.00
2023-05-25T10:36:08.567Z,54.13
2023-05-25T10:38:40.192Z,53.12
2023-05-25T10:41:11.200Z,52.78
2023-05-25T10:43:41.038Z,50.54
2023-05-25T10:46:09.571Z,50.86
2023-05-25T10:48:38.637Z,51.50
2023-05-25T10:51:11.812Z,50.29
2023-05-25T10:53:45.914Z,50.07
2023-05-25T10:56:14.576Z,51.85
2023-05-25T10:58:44.293Z,51.20
2023-05-25T11:01:13.935Z,50.87
2023-05-25T11:03:45.330Z,49.45
2023-05-25T11:06:17.836Z,49.22
2023-05-25T11:09:06.592Z,50.86
2023-05-25T11:11:43.255Z,49.05
2023-05-25T11:14:27.756Z,49.07
2023-05-25T11:17:13.120Z,48.34
2023-05-25T11:19:50.777Z,49.02
2023-05-25T11:22:23.001Z,49.61
2023-05-25T11:24:52.436Z,49.07
2023-05-25T11:27:24.373Z,48.65
2023-05-25T11:29:53.744Z,47.78
2023-05-25T11:32:23.011Z,48.07
2023-05-25T11:34:54.023Z,46.63
2023-05-25T12:01:23.565Z,39.91
2023-05-25T12:03:56.944Z,39.85
2023-05-25T12:06:33.270Z,41.26
2023-05-25T12:09:01.025Z,40.59
2023-05-25T12:11:35.831Z,39.35
2023-05-25T12:14:04.385Z,40.17
2023-05-25T12:16:34.145Z,41.94
2023-05-25T12:19:01.363Z,41.27
2023-05-25T12:21:28.275Z,41.59
2023-05-25T12:23:55.279Z,40.93
2023-05-25T12:26:22.100Z,40.92
2023-05-25T12:29:06.544Z,42.62
2023-05-25T12:31:34.993Z,41.37
2023-05-25T12:34:05.920Z,41.49
2023-05-25T12:36:52.554Z,42.34
2023-05-25T12:39:31.117Z,42.09
2023-05-25T12:42:00.032Z,42.15
2023-05-25T12:44:28.175Z,42.31
2023-05-25T12:46:55.565Z,42.51
2023-05-25T12:49:30.750Z,43.42
2023-05-25T12:51:58.840Z,43.70
2023-05-25T12:54:54.348Z,43.34
2023-05-25T12:57:20.834Z,44.32
2023-05-25T12:59:47.574Z,45.47
2023-05-25T13:02:14.460Z,45.08
2023-05-25T13:04:41.440Z,44.90
2023-05-25T13:07:09.329Z,45.60
2023-05-25T13:09:36.434Z,45.27
2023-05-25T13:12:03.995Z,44.77
2023-05-25T13:14:30.486Z,45.71
2023-05-25T13:16:57.364Z,45.79
2023-05-25T13:19:25.302Z,46.06
2023-05-25T13:21:52.461Z,46.65
2023-05-25T13:24:19.151Z,46.42
2023-05-25T13:26:48.175Z,45.64
2023-05-25T13:29:16.713Z,45.71
2023-05-25T13:31:43.379Z,46.05
2023-05-25T13:34:10.095Z,46.91
2023-05-25T13:36:36.549Z,46.78
2023-05-25T13:39:04.607Z,46.50
2023-05-25T13:41:31.754Z,46.11
2023-05-25T13:43:59.877Z,46.61
2023-05-25T13:46:34.149Z,46.93
2023-05-25T13:49:01.764Z,47.80
2023-05-25T13:51:28.226Z,47.53
2023-05-25T13:53:55.013Z,46.71
2023-05-25T13:56:21.734Z,47.42
2023-05-25T13:58:48.367Z,48.10
2023-05-25T14:01:15.063Z,48.59
2023-05-25T14:03:42.163Z,48.23
2023-05-25T14:06:09.010Z,48.36
2023-05-25T14:08:35.467Z,48.02
2023-05-25T14:11:02.417Z,48.45
2023-05-25T14:13:28.963Z,48.96
2023-05-25T14:15:55.646Z,49.89
2023-05-25T14:18:22.206Z,50.16
2023-05-25T14:20:49.114Z,49.32
2023-05-25T14:23:16.656Z,48.98
2023-05-25T14:25:46.354Z,49.66
2023-05-25T14:28:13.138Z,50.34
2023-05-25T14:30:39.729Z,50.88
2023-05-25T14:33:07.052Z,49.97
2023-05-25T14:35:33.777Z,49.59
2023-05-25T14:38:00.239Z,49.60
2023-05-25T14:40:26.747Z,50.19
2023-05-25T14:42:54.831Z,50.36
2023-05-25T14:45:21.231Z,50.71
2023-05-25T14:47:47.968Z,51.65
2023-05-25T14:50:14.482Z,51.46
2023-05-25T14:52:41.339Z,52.06
2023-05-25T14:55:13.114Z,51.57
2023-05-25T15:10:32.168Z,52.77
2023-05-25T15:13:00.054Z,52.52
2023-05-25T15:15:28.024Z,52.06
2023-05-25T15:17:55.936Z,51.69
2023-05-25T15:20:24.005Z,51.46
2023-05-25T15:22:53.963Z,51.91
2023-05-25T15:25:34.935Z,52.27
2023-05-25T15:28:04.111Z,52.82
2023-05-25T15:30:33.252Z,53.01
2023-05-25T15:33:02.086Z,53.57
2023-05-25T15:35:32.862Z,53.96
2023-05-25T15:38:01.506Z,56.18
2023-05-25T15:40:29.702Z,55.71
2023-05-25T15:42:58.018Z,54.74
2023-05-25T15:45:26.436Z,54.90
2023-05-25T15:47:54.420Z,54.51
2023-05-25T15:50:22.254Z,55.54
2023-05-25T15:52:50.301Z,53.65
2023-05-25T15:55:18.307Z,52.71
2023-05-25T15:57:46.240Z,52.50
2023-05-25T16:00:14.548Z,52.18
2023-05-25T16:02:42.297Z,52.24
2023-05-25T16:05:10.125Z,51.75
2023-05-25T16:07:37.965Z,52.10
2023-05-25T16:10:06.356Z,52.86
2023-05-25T16:12:34.125Z,52.43
2023-05-25T16:15:01.909Z,52.11
2023-05-25T16:17:30.150Z,52.79
2023-05-25T16:19:58.067Z,52.69
2023-05-25T16:22:26.244Z,53.41
2023-05-25T16:24:54.280Z,53.29
2023-05-25T16:27:22.058Z,53.10
2023-05-25T16:29:50.026Z,53.46
2023-05-25T16:32:18.534Z,53.09
2023-05-25T16:34:46.901Z,53.56
2023-05-25T16:37:14.847Z,53.67
2023-05-25T16:39:42.810Z,53.78
2023-05-25T16:42:10.830Z,54.08
2023-05-25T16:44:38.852Z,54.24
2023-05-25T16:47:06.735Z,54.64
2023-05-25T16:49:34.957Z,54.67
2023-05-25T16:52:03.044Z,55.52
2023-05-25T16:54:31.211Z,55.72
2023-05-25T16:56:59.359Z,55.87
2023-05-25T16:59:27.247Z,56.45
2023-05-25T17:01:55.881Z,56.94
2023-05-25T17:04:23.742Z,56.57
2023-05-25T17:06:51.791Z,56.60
2023-05-25T17:09:21.186Z,56.52
2023-05-25T17:11:48.982Z,56.82
2023-05-25T17:14:17.120Z,57.77
2023-05-25T17:16:44.957Z,58.07
2023-05-25T17:19:15.001Z,58.60
2023-05-25T17:21:43.567Z,59.77
2023-05-25T17:24:11.358Z,58.88
2023-05-25T17:26:39.222Z,59.42
2023-05-25T17:29:07.545Z,59.36
2023-05-25T17:31:35.507Z,59.52
2023-05-25T17:34:03.969Z,59.68
2023-05-25T17:36:32.388Z,60.38
2023-05-25T17:39:00.620Z,60.43
2023-05-25T17:41:29.530Z,61.05
2023-05-25T17:43:57.958Z,61.43
2023-05-25T17:46:26.337Z,61.97
2023-05-25T17:48:54.813Z,62.18
2023-05-25T17:51:22.965Z,62.51
2023-05-25T17:53:51.439Z,61.84
2023-05-25T17:56:19.871Z,62.53
2023-05-25T17:58:48.485Z,62.95
2023-05-25T18:01:17.162Z,63.38
2023-05-25T18:03:45.801Z,63.18
2023-05-25T18:06:15.146Z,63.62
2023-05-25T18:08:44.272Z,63.83
2023-05-25T18:11:12.392Z,64.11
2023-05-25T18:13:40.686Z,64.39
2023-05-25T18:16:09.296Z,64.31
2023-05-25T18:18:37.104Z,65.13
2023-05-25T18:21:05.803Z,64.83
2023-05-25T18:23:34.332Z,65.19
2023-05-25T18:26:04.394Z,65.53
2023-05-25T18:28:32.589Z,65.94
2023-05-25T18:31:00.742Z,66.04
2023-05-25T18:33:29.762Z,66.33
2023-05-25T18:35:58.105Z,66.90
2023-05-25T18:38:26.054Z,66.70
2023-05-25T18:40:54.064Z,67.03
2023-05-25T18:43:22.441Z,67.51
2023-05-25T18:45:50.672Z,67.71
2023-05-25T18:48:19.869Z,68.25
2023-05-25T18:50:48.286Z,68.50
2023-05-25T18:53:17.097Z,68.83
2023-05-25T18:55:45.998Z,68.99
2023-05-25T18:58:14.456Z,69.45
2023-05-25T19:00:42.224Z,69.56
2023-05-25T19:03:11.011Z,69.84
2023-05-25T19:05:39.300Z,70.03
2023-05-25T19:08:08.330Z,70.22
2023-05-25T19:10:36.482Z,70.41
2023-05-25T19:13:06.724Z,70.90
2023-05-25T19:15:35.002Z,70.70
2023-05-25T19:18:04.630Z,71.35
2023-05-25T19:20:33.963Z,71.54
2023-05-25T19:23:04.354Z,71.87
2023-05-25T19:25:32.613Z,72.11
2023-05-25T19:28:02.876Z,72.53
2023-05-25T19:30:32.249Z,72.18
2023-05-25T19:33:00.496Z,72.83
2023-05-25T19:35:28.770Z,72.99
2023-05-25T19:37:56.536Z,73.31
2023-05-25T19:40:24.824Z,73.43
2023-05-25T19:42:53.078Z,73.56
2023-05-25T19:45:21.080Z,73.91
2023-05-25T19:47:50.019Z,74.03
2023-05-25T19:50:19.195Z,74.28
2023-05-25T19:52:47.847Z,74.42
2023-05-25T19:55:15.974Z,74.31
2023-05-25T19:57:46.315Z,74.71
2023-05-25T20:00:25.537Z,74.87
2023-05-25T20:02:55.891Z,74.98
2023-05-25T20:05:24.582Z,74.54
2023-05-25T20:07:52.797Z,75.02
2023-05-25T20:10:20.779Z,75.27
2023-05-25T20:12:49.034Z,75.30
2023-05-25T20:15:18.429Z,75.54
2023-05-25T20:17:46.466Z,75.57
2023-05-25T20:20:15.706Z,75.53
2023-05-25T20:22:43.926Z,76.05
2023-05-25T20:25:12.273Z,75.71
2023-05-25T20:27:40.107Z,75.65
2023-05-25T20:30:08.827Z,75.91
2023-05-25T20:32:38.479Z,75.85
2023-05-25T20:35:06.600Z,76.01
2023-05-25T20:37:35.393Z,75.84
2023-05-25T20:40:06.631Z,76.75
2023-05-25T20:42:34.508Z,76.43
2023-05-25T20:45:02.390Z,76.43
2023-05-25T20:47:30.662Z,76.23
2023-05-25T20:49:59.229Z,76.56
2023-05-25T20:52:26.984Z,76.35
2023-05-25T20:54:54.975Z,76.58
2023-05-25T20:57:22.866Z,76.64
2023-05-25T20:59:51.739Z,77.00
2023-05-25T21:02:20.093Z,77.26
2023-05-25T21:04:48.115Z,77.48
2023-05-25T21:07:15.960Z,77.49
2023-05-25T21:09:43.714Z,77.48
2023-05-25T21:12:11.559Z,77.47
2023-05-25T21:14:39.377Z,77.42
2023-05-25T21:17:07.177Z,77.87
2023-05-25T21:19:34.966Z,77.45
2023-05-25T21:22:02.939Z,78.02
2023-05-25T21:24:30.860Z,77.90
2023-05-25T21:26:58.706Z,78.08
2023-05-25T21:29:26.414Z,77.64
2023-05-25T21:31:54.237Z,78.22
2023-05-25T21:34:22.288Z,78.27
2023-05-25T21:36:50.177Z,78.57
2023-05-25T21:39:18.144Z,78.70
2023-05-25T21:41:45.900Z,79.21
2023-05-25T21:44:13.708Z,78.94
2023-05-25T21:46:41.486Z,78.84
2023-05-25T21:49:09.264Z,79.26
2023-05-25T21:51:37.376Z,78.59
2023-05-25T21:54:05.405Z,78.70
2023-05-25T21:56:33.960Z,78.29
2023-05-25T21:59:01.674Z,77.83
2023-05-25T22:01:29.545Z,78.19
2023-05-25T22:03:57.482Z,77.42
2023-05-25T22:06:25.341Z,77.82
2023-05-25T22:08:53.108Z,77.90
2023-05-25T22:11:22.181Z,77.73
2023-05-25T22:13:50.371Z,78.07
2023-05-25T22:16:18.215Z,76.96
2023-05-25T22:18:46.022Z,77.36
2023-05-25T22:21:14.815Z,76.71
2023-05-25T22:23:42.567Z,77.30
2023-05-25T22:26:10.379Z,77.54
2023-05-25T22:28:38.179Z,77.38
2023-05-25T22:31:06.036Z,77.60
2023-05-25T22:33:33.856Z,77.42
2023-05-25T22:36:01.714Z,77.65
2023-05-25T22:38:29.532Z,77.67
2023-05-25T22:40:57.320Z,77.56
2023-05-25T22:43:26.997Z,77.67
2023-05-25T22:45:54.762Z,77.04
2023-05-25T22:48:22.472Z,76.58
2023-05-25T22:50:50.292Z,77.27
2023-05-25T22:53:18.129Z,77.68
2023-05-25T22:55:47.554Z,77.96
2023-05-25T22:58:16.574Z,77.95
2023-05-25T23:00:44.370Z,78.41
2023-05-25T23:03:12.293Z,78.14
2023-05-25T23:05:40.234Z,78.35
2023-05-25T23:08:09.314Z,78.38
2023-05-25T23:10:37.014Z,78.30
2023-05-25T23:13:06.288Z,78.63
2023-05-25T23:15:40.069Z,79.28
2023-05-25T23:18:08.288Z,79.37
2023-05-25T23:20:36.219Z,79.23
2023-05-25T23:23:04.167Z,79.28
2023-05-25T23:25:32.131Z,78.88
2023-05-25T23:27:59.912Z,79.34
2023-05-25T23:30:27.694Z,79.52
2023-05-25T23:32:55.575Z,79.71
2023-05-25T23:35:23.635Z,79.53
2023-05-25T23:37:52.179Z,80.25
2023-05-25T23:40:19.988Z,80.36
2023-05-25T23:42:48.933Z,80.15
2023-05-25T23:45:16.851Z,80.02
2023-05-25T23:47:44.885Z,80.01
2023-05-25T23:50:12.721Z,80.14
2023-05-25T23:52:41.543Z,80.87
2023-05-25T23:55:10.941Z,80.24
2023-05-25T23:57:39.356Z,80.41
